Time;durP1;ratioP1;P1;durP2;ratioP2;P2;SDS_P1;SDS_P2;PMS_P1;PMS_P2;Temp;Humidity;BMP_temperature;BMP_pressure;BME280_temperature;BME280_humidity;BME280_pressure;Samples;Min_cycle;Max_cycle;Signal;HPM_P1;HPM_P2
2021/12/02 00:02:23;;;;;;;10.07;1.95;;;5.20;99.90;;;;;;5066965;28;20109;-68
2021/12/02 00:04:49;;;;;;;9.50;2.03;;;5.20;99.90;;;;;;5051390;28;20036;-68
2021/12/02 00:07:14;;;;;;;9.18;2.15;;;5.20;99.90;;;;;;5069176;28;20548;-68
2021/12/02 00:09:40;;;;;;;8.68;2.22;;;5.20;99.90;;;;;;5064160;28;20052;-68
2021/12/02 00:12:07;;;;;;;7.97;2.22;;;5.20;99.90;;;;;;5048513;28;20045;-68
2021/12/02 00:14:45;;;;;;;8.63;2.10;;;5.10;99.90;;;;;;5054737;28;20040;-68
2021/12/02 00:17:27;;;;;;;13.15;2.20;;;5.10;99.90;;;;;;5074962;28;20443;-68
2021/12/02 00:23:29;;;;;;;10.15;2.40;;;5.00;99.90;;;;;;5049780;28;20052;-68
2021/12/02 00:26:00;;;;;;;7.32;2.20;;;5.00;99.90;;;;;;5051160;28;20188;-67
2021/12/02 00:28:28;;;;;;;6.25;1.92;;;4.90;99.90;;;;;;5049685;28;20048;-68
2021/12/02 00:30:59;;;;;;;8.20;1.80;;;4.90;99.90;;;;;;5068441;28;20052;-67
2021/12/02 00:33:27;;;;;;;8.88;1.90;;;4.80;99.90;;;;;;5067380;28;20374;-68
2021/12/02 00:35:53;;;;;;;9.27;2.10;;;4.80;99.90;;;;;;5068380;28;20055;-68
2021/12/02 00:38:21;;;;;;;7.97;2.30;;;4.80;99.90;;;;;;5054430;28;20036;-68
2021/12/02 00:40:47;;;;;;;7.60;1.98;;;4.80;99.90;;;;;;5088999;28;20415;-68
2021/12/02 00:43:14;;;;;;;9.23;2.33;;;6.40;99.90;;;;;;5087575;28;20048;-67
2021/12/02 00:45:41;;;;;;;7.60;2.40;;;4.80;99.90;;;;;;5085983;28;20048;-68
2021/12/02 00:48:11;;;;;;;9.23;2.17;;;4.90;99.90;;;;;;5070394;28;20092;-67
2021/12/02 00:50:39;;;;;;;7.78;2.00;;;4.90;99.90;;;;;;5089668;28;20059;-68
2021/12/02 00:53:07;;;;;;;6.60;2.28;;;4.90;99.90;;;;;;5088956;28;20048;-68
2021/12/02 00:55:36;;;;;;;10.48;2.22;;;5.00;99.90;;;;;;5088704;28;20043;-68
2021/12/02 00:58:02;;;;;;;6.47;2.00;;;4.80;99.90;;;;;;5089127;28;20040;-67
2021/12/02 01:00:29;;;;;;;11.02;2.30;;;4.80;99.90;;;;;;5051808;28;20660;-68
2021/12/02 01:02:57;;;;;;;6.70;1.77;;;4.70;99.90;;;;;;5076293;28;20045;-68
2021/12/02 01:05:24;;;;;;;8.10;2.00;;;4.70;99.90;;;;;;5060576;28;20040;-68
2021/12/02 01:07:49;;;;;;;8.55;1.60;;;4.70;99.90;;;;;;5090185;28;20050;-67
2021/12/02 01:10:15;;;;;;;8.75;1.90;;;4.60;99.90;;;;;;5070150;28;20035;-68
2021/12/02 01:12:41;;;;;;;7.20;1.98;;;4.50;99.90;;;;;;5087959;28;20072;-68
2021/12/02 01:15:07;;;;;;;7.60;2.05;;;4.60;99.90;;;;;;5061897;28;20048;-68
2021/12/02 01:17:33;;;;;;;7.13;2.45;;;4.60;99.90;;;;;;5066958;28;20151;-68
2021/12/02 01:19:59;;;;;;;7.63;1.65;;;4.60;99.90;;;;;;5068445;28;20143;-68
2021/12/02 01:22:27;;;;;;;5.50;1.70;;;4.70;99.90;;;;;;5068042;28;20143;-68
2021/12/02 01:24:53;;;;;;;2.80;1.40;;;5.00;99.90;;;;;;5067966;28;20089;-68
2021/12/02 01:27:21;;;;;;;5.32;1.52;;;4.80;99.90;;;;;;5068949;28;20147;-68
2021/12/02 01:29:48;;;;;;;4.43;1.45;;;4.80;99.90;;;;;;5053900;28;20044;-68
2021/12/02 01:32:15;;;;;;;6.82;1.40;;;4.80;99.90;;;;;;5050225;28;20519;-67
2021/12/02 01:34:45;;;;;;;8.70;1.83;;;4.90;99.90;;;;;;5068503;28;20094;-67
2021/12/02 01:37:11;;;;;;;4.95;1.60;;;4.90;99.90;;;;;;5087735;28;20426;-68
2021/12/02 01:39:37;;;;;;;5.88;1.30;;;4.90;99.90;;;;;;5060448;28;20036;-68
2021/12/02 01:42:03;;;;;;;5.53;1.50;;;4.90;99.90;;;;;;5063285;28;20048;-68
2021/12/02 01:44:29;;;;;;;6.30;1.60;;;4.90;99.90;;;;;;5055302;28;20045;-67
2021/12/02 01:46:59;;;;;;;8.98;1.90;;;4.90;99.90;;;;;;5069677;28;20389;-68
2021/12/02 01:49:33;;;;;;;5.43;1.42;;;4.80;99.90;;;;;;5079014;28;20499;-67
2021/12/02 01:52:00;;;;;;;4.72;1.40;;;4.80;99.90;;;;;;5091336;28;20102;-68
2021/12/02 01:54:27;;;;;;;7.72;1.83;;;4.80;99.90;;;;;;5062354;28;20040;-68
2021/12/02 01:57:29;;;;;;;4.93;1.40;;;4.80;99.90;;;;;;5072153;28;20503;-68
2021/12/02 02:00:05;;;;;;;4.93;1.50;;;4.90;99.90;;;;;;5070649;28;20396;-68
2021/12/02 02:02:37;;;;;;;8.25;1.48;;;4.80;99.90;;;;;;5071137;28;20048;-68
2021/12/02 02:05:07;;;;;;;3.67;1.52;;;4.80;99.90;;;;;;5071788;28;20366;-68
2021/12/02 02:07:35;;;;;;;5.50;1.55;;;4.70;99.90;;;;;;5069950;28;20058;-68
2021/12/02 02:10:01;;;;;;;7.60;1.98;;;4.70;99.90;;;;;;5087742;28;20148;-67
2021/12/02 02:12:27;;;;;;;8.70;1.90;;;4.70;99.90;;;;;;5091251;28;20079;-68
2021/12/02 02:14:53;;;;;;;6.68;1.77;;;4.70;99.90;;;;;;5072553;28;20122;-68
2021/12/02 02:17:25;;;;;;;7.60;1.85;;;4.60;99.90;;;;;;5088810;28;20134;-68
2021/12/02 02:19:52;;;;;;;6.88;2.00;;;4.60;99.90;;;;;;5092117;28;20084;-68
2021/12/02 02:22:21;;;;;;;7.97;2.25;;;4.60;99.90;;;;;;5088605;28;20040;-68
2021/12/02 02:24:48;;;;;;;7.22;1.92;;;4.50;99.90;;;;;;5053440;28;20084;-67
2021/12/02 02:27:14;;;;;;;7.75;2.67;;;4.40;99.90;;;;;;5062423;28;20083;-67
2021/12/02 02:29:39;;;;;;;6.57;1.67;;;4.40;99.90;;;;;;5040510;28;20133;-68
2021/12/02 02:32:05;;;;;;;6.85;1.55;;;4.50;99.90;;;;;;5069842;28;20464;-68
2021/12/02 02:34:31;;;;;;;9.85;1.77;;;4.50;99.90;;;;;;5051981;28;20047;-68
2021/12/02 02:37:00;;;;;;;8.10;1.70;;;4.50;99.90;;;;;;5054869;28;20409;-67
2021/12/02 02:39:28;;;;;;;7.70;1.70;;;4.50;99.90;;;;;;5072833;28;20074;-68
2021/12/02 02:41:57;;;;;;;4.80;1.88;;;4.40;99.90;;;;;;5090311;28;20061;-67
2021/12/02 02:44:24;;;;;;;3.67;1.67;;;4.40;99.90;;;;;;5072845;28;20127;-68
2021/12/02 02:46:50;;;;;;;4.85;1.65;;;4.40;99.90;;;;;;5089168;28;20031;-68
2021/12/02 02:49:16;;;;;;;6.95;1.60;;;4.40;99.90;;;;;;5071814;28;20040;-68
2021/12/02 02:51:42;;;;;;;6.15;1.58;;;4.40;99.90;;;;;;5090527;28;20127;-68
2021/12/02 02:54:11;;;;;;;7.78;1.70;;;4.50;99.90;;;;;;5090721;28;20052;-68
2021/12/02 02:56:46;;;;;;;3.55;1.45;;;4.50;99.90;;;;;;5071702;28;20093;-68
2021/12/02 02:59:24;;;;;;;4.43;1.97;;;4.50;99.90;;;;;;5072433;28;20052;-67
2021/12/02 03:02:01;;;;;;;6.20;2.53;;;4.50;99.90;;;;;;5067795;28;20095;-68
2021/12/02 03:07:36;;;;;;;3.67;1.30;;;4.50;99.90;;;;;;5024450;28;20052;-68
2021/12/02 03:10:14;;;;;;;7.53;1.60;;;4.50;99.90;;;;;;5082192;28;20044;-68
2021/12/02 03:12:54;;;;;;;3.72;1.35;;;4.40;99.90;;;;;;5073788;28;20052;-67
2021/12/02 03:17:47;;;;;;;3.22;1.10;;;4.40;99.90;;;;;;5073002;28;20513;-67
2021/12/02 03:20:13;;;;;;;2.13;1.10;;;4.40;99.90;;;;;;5052605;28;20052;-67
2021/12/02 03:22:40;;;;;;;1.35;1.00;;;4.30;99.90;;;;;;5067797;28;20067;-67
2021/12/02 03:25:08;;;;;;;3.17;1.00;;;4.20;99.90;;;;;;5090280;28;20392;-67
2021/12/02 03:27:34;;;;;;;3.92;1.20;;;4.10;99.90;;;;;;5053685;28;20061;-67
2021/12/02 03:29:59;;;;;;;4.10;1.20;;;4.00;99.90;;;;;;5064849;28;20127;-67
2021/12/02 03:32:25;;;;;;;2.75;1.02;;;4.00;99.90;;;;;;5071133;28;20055;-67
2021/12/02 03:34:51;;;;;;;2.85;1.17;;;3.90;99.90;;;;;;5071601;28;20103;-68
2021/12/02 03:37:17;;;;;;;3.55;1.20;;;3.90;99.90;;;;;;5068874;28;20094;-68
2021/12/02 03:39:43;;;;;;;1.00;0.90;;;3.80;99.90;;;;;;5052508;28;20052;-68
2021/12/02 03:42:09;;;;;;;1.58;0.90;;;3.60;99.90;;;;;;5051181;28;20071;-67
2021/12/02 03:44:35;;;;;;;2.78;1.33;;;3.60;99.90;;;;;;5088512;28;20063;-67
2021/12/02 03:47:01;;;;;;;1.92;0.90;;;3.50;99.90;;;;;;5086788;28;20063;-67
2021/12/02 03:49:27;;;;;;;4.10;1.10;;;3.40;99.90;;;;;;5071989;28;20048;-67
2021/12/02 03:51:53;;;;;;;3.47;1.58;;;3.50;99.90;;;;;;5089223;28;20056;-67
2021/12/02 03:54:19;;;;;;;2.65;1.30;;;4.50;99.90;;;;;;5060427;28;20170;-67
2021/12/02 03:56:44;;;;;;;1.38;1.10;;;3.50;99.90;;;;;;5066890;28;20066;-67
2021/12/02 03:59:10;;;;;;;2.00;1.20;;;3.50;99.90;;;;;;5087830;28;20048;-67
2021/12/02 04:01:36;;;;;;;1.92;0.93;;;3.50;99.90;;;;;;5077321;28;20571;-67
2021/12/02 04:04:02;;;;;;;1.85;1.10;;;3.40;99.90;;;;;;5068988;28;20106;-66
2021/12/02 04:06:27;;;;;;;2.53;1.02;;;3.40;99.90;;;;;;5050047;28;20083;-67
2021/12/02 04:08:58;;;;;;;5.72;1.48;;;3.40;99.90;;;;;;5075999;28;20422;-67
2021/12/02 04:11:39;;;;;;;4.75;1.10;;;3.30;99.90;;;;;;5087033;28;20044;-67
2021/12/02 04:17:04;;;;;;;3.53;1.52;;;3.20;99.90;;;;;;5040776;28;20257;-67
2021/12/02 04:19:30;;;;;;;4.13;1.20;;;3.20;99.90;;;;;;5088670;28;20048;-67
2021/12/02 04:21:58;;;;;;;3.33;1.13;;;3.10;99.90;;;;;;5070286;28;20059;-67
2021/12/02 04:24:24;;;;;;;2.42;1.20;;;3.10;99.90;;;;;;5068089;28;20408;-68
2021/12/02 04:26:50;;;;;;;1.77;1.20;;;3.10;99.90;;;;;;5068582;28;20058;-68
2021/12/02 04:29:16;;;;;;;3.80;1.27;;;3.10;99.90;;;;;;5046630;28;20477;-67
2021/12/02 04:31:46;;;;;;;1.85;1.15;;;3.10;99.90;;;;;;5077600;28;20043;-67
2021/12/02 04:34:12;;;;;;;4.00;1.30;;;3.20;99.90;;;;;;5088938;28;20052;-68
2021/12/02 04:36:39;;;;;;;4.95;1.58;;;3.20;99.90;;;;;;5073003;28;20048;-67
2021/12/02 04:39:06;;;;;;;3.90;1.20;;;3.30;99.90;;;;;;5088841;28;20518;-67
2021/12/02 04:41:31;;;;;;;2.40;1.20;;;3.30;99.90;;;;;;5087019;28;20119;-68
2021/12/02 04:43:57;;;;;;;3.78;1.60;;;3.50;99.90;;;;;;5034287;28;20534;-67
2021/12/02 04:46:22;;;;;;;2.33;1.30;;;3.50;99.90;;;;;;5068589;28;20036;-67
2021/12/02 04:48:48;;;;;;;3.03;1.40;;;3.60;99.90;;;;;;5068295;28;20036;-68
2021/12/02 04:51:14;;;;;;;4.70;1.30;;;3.70;99.90;;;;;;5068134;28;20064;-67
2021/12/02 04:53:40;;;;;;;5.13;1.30;;;3.70;99.90;;;;;;5067443;28;20040;-68
2021/12/02 04:56:05;;;;;;;2.15;1.10;;;3.70;99.90;;;;;;5069031;28;20055;-67
2021/12/02 04:58:31;;;;;;;2.80;1.13;;;3.70;99.90;;;;;;5066934;28;20511;-67
2021/12/02 05:00:58;;;;;;;3.25;1.23;;;3.80;99.90;;;;;;5066987;28;20488;-66
2021/12/02 05:03:24;;;;;;;2.63;1.27;;;3.80;99.90;;;;;;5049687;28;20123;-67
2021/12/02 05:05:49;;;;;;;3.10;1.42;;;3.80;99.90;;;;;;5063734;28;20111;-67
2021/12/02 05:08:15;;;;;;;5.85;1.27;;;3.80;99.90;;;;;;5067025;28;20374;-67
2021/12/02 05:10:41;;;;;;;2.25;1.10;;;3.80;99.90;;;;;;5068295;28;20533;-67
2021/12/02 05:13:06;;;;;;;5.45;1.30;;;3.80;99.90;;;;;;5068418;28;20076;-67
2021/12/02 05:15:32;;;;;;;3.42;1.27;;;3.80;99.90;;;;;;5052262;28;20119;-67
2021/12/02 05:17:57;;;;;;;4.97;1.33;;;3.80;99.90;;;;;;5060700;28;20069;-67
2021/12/02 05:20:23;;;;;;;1.83;1.10;;;3.80;99.90;;;;;;5060328;28;20044;-68
2021/12/02 05:22:50;;;;;;;2.88;1.38;;;3.90;99.90;;;;;;5067884;28;20158;-68
2021/12/02 05:25:16;;;;;;;2.13;1.10;;;3.80;99.90;;;;;;5066575;28;20040;-69
2021/12/02 05:27:42;;;;;;;3.67;1.05;;;3.80;99.90;;;;;;5067047;28;20056;-68
2021/12/02 05:30:08;;;;;;;2.15;1.20;;;3.70;99.90;;;;;;5059812;28;20048;-69
2021/12/02 05:32:34;;;;;;;3.15;1.30;;;3.80;99.90;;;;;;5066814;28;20087;-69
2021/12/02 05:35:00;;;;;;;2.38;1.33;;;3.80;99.90;;;;;;5068049;28;20500;-67
2021/12/02 05:37:26;;;;;;;2.08;1.10;;;3.70;99.90;;;;;;5066523;28;20131;-67
2021/12/02 05:39:52;;;;;;;4.88;1.45;;;3.70;99.90;;;;;;5067900;28;20195;-67
2021/12/02 05:42:17;;;;;;;1.35;1.10;;;3.70;99.90;;;;;;5067253;28;20044;-68
2021/12/02 05:44:45;;;;;;;3.88;1.27;;;3.70;99.90;;;;;;5065921;28;20048;-67
2021/12/02 05:47:10;;;;;;;3.22;1.50;;;3.70;99.90;;;;;;5065619;28;20416;-68
2021/12/02 05:49:36;;;;;;;3.35;1.55;;;3.90;99.90;;;;;;5066929;28;20040;-68
2021/12/02 05:52:02;;;;;;;2.47;1.50;;;3.70;99.90;;;;;;5078358;28;20473;-67
2021/12/02 05:54:27;;;;;;;3.17;1.63;;;3.60;99.90;;;;;;5077829;28;20040;-67
2021/12/02 05:56:53;;;;;;;3.50;1.50;;;3.60;99.90;;;;;;5088458;28;20079;-67
2021/12/02 05:59:19;;;;;;;2.92;1.30;;;3.60;99.90;;;;;;5052887;28;20466;-68
2021/12/02 06:01:44;;;;;;;3.08;1.27;;;3.60;99.90;;;;;;5062424;28;20037;-68
2021/12/02 06:04:10;;;;;;;2.28;1.20;;;3.50;99.90;;;;;;5049939;28;20091;-68
2021/12/02 06:06:37;;;;;;;2.83;1.30;;;3.50;99.90;;;;;;5063167;28;20517;-68
2021/12/02 06:09:04;;;;;;;3.38;1.42;;;3.50;99.90;;;;;;5069207;28;20063;-68
2021/12/02 06:11:30;;;;;;;2.83;1.25;;;3.50;99.90;;;;;;5068496;28;20075;-68
2021/12/02 06:13:56;;;;;;;3.42;1.80;;;3.50;99.90;;;;;;5068911;28;20040;-67
2021/12/02 06:16:21;;;;;;;2.60;1.38;;;3.50;99.90;;;;;;5086054;28;20079;-68
2021/12/02 06:18:48;;;;;;;4.35;1.40;;;3.50;99.90;;;;;;5049563;28;20079;-68
2021/12/02 06:21:13;;;;;;;4.07;1.50;;;3.30;99.90;;;;;;5087569;28;20048;-68
2021/12/02 06:23:41;;;;;;;4.00;1.30;;;3.40;99.90;;;;;;5087315;28;20090;-68
2021/12/02 06:26:08;;;;;;;2.58;1.35;;;3.40;99.90;;;;;;5087201;28;20067;-68
2021/12/02 06:28:34;;;;;;;2.58;1.50;;;3.40;99.90;;;;;;5069001;28;20098;-68
2021/12/02 06:31:02;;;;;;;3.45;1.75;;;3.50;99.90;;;;;;5050925;28;20040;-68
2021/12/02 06:33:29;;;;;;;4.85;1.40;;;3.50;99.90;;;;;;5068617;28;20044;-67
2021/12/02 06:35:54;;;;;;;4.00;1.58;;;3.50;99.90;;;;;;5072299;28;20396;-67
2021/12/02 06:38:20;;;;;;;3.42;1.50;;;3.60;99.90;;;;;;5070807;28;20044;-69
2021/12/02 06:40:46;;;;;;;4.15;1.58;;;3.60;99.90;;;;;;5070121;28;20037;-68
2021/12/02 06:43:14;;;;;;;6.47;1.83;;;3.60;99.90;;;;;;5056589;28;20056;-69
2021/12/02 06:45:40;;;;;;;2.85;1.15;;;3.60;99.90;;;;;;5067586;28;20516;-68
2021/12/02 06:48:06;;;;;;;4.38;1.40;;;3.60;99.90;;;;;;5052617;28;20028;-68
2021/12/02 06:50:34;;;;;;;2.63;1.17;;;3.60;99.90;;;;;;5070029;28;20044;-68
2021/12/02 06:53:00;;;;;;;4.05;1.30;;;3.60;99.90;;;;;;5070545;28;20140;-68
2021/12/02 06:55:26;;;;;;;2.05;1.30;;;3.60;99.90;;;;;;5069235;28;20131;-68
2021/12/02 06:57:52;;;;;;;4.57;1.50;;;3.60;99.90;;;;;;5071176;28;20123;-68
2021/12/02 07:00:20;;;;;;;5.03;1.40;;;3.60;99.90;;;;;;5047950;28;20124;-68
2021/12/02 07:02:46;;;;;;;5.22;1.50;;;3.60;99.90;;;;;;5070031;28;20040;-68
2021/12/02 07:05:14;;;;;;;5.95;2.35;;;3.50;99.90;;;;;;5057807;28;20515;-68
2021/12/02 07:07:40;;;;;;;3.50;1.50;;;3.40;99.90;;;;;;5044026;28;20110;-68
2021/12/02 07:10:10;;;;;;;3.80;1.50;;;3.40;99.90;;;;;;5071411;28;20044;-69
2021/12/02 07:12:38;;;;;;;3.15;1.42;;;3.40;99.90;;;;;;5070194;28;20413;-69
2021/12/02 07:15:10;;;;;;;2.40;1.58;;;3.40;99.90;;;;;;5068886;28;20439;-68
2021/12/02 07:17:36;;;;;;;4.68;1.70;;;3.40;99.90;;;;;;5068939;28;20049;-68
2021/12/02 07:20:03;;;;;;;4.28;1.60;;;4.30;99.90;;;;;;5068439;28;20040;-69
2021/12/02 07:22:28;;;;;;;3.20;1.58;;;3.20;99.90;;;;;;5068897;28;20150;-68
2021/12/02 07:24:54;;;;;;;1.48;1.30;;;3.10;99.90;;;;;;5069516;28;20053;-69
2021/12/02 07:27:20;;;;;;;3.28;1.30;;;3.10;99.90;;;;;;5069801;28;20051;-69
2021/12/02 07:29:46;;;;;;;2.25;1.38;;;3.00;99.90;;;;;;5069179;28;20040;-68
2021/12/02 07:32:12;;;;;;;3.80;1.50;;;3.00;99.90;;;;;;5055679;28;20114;-68
2021/12/02 07:34:43;;;;;;;4.05;1.63;;;2.90;99.90;;;;;;5034318;28;20162;-67
2021/12/02 07:37:12;;;;;;;3.53;1.42;;;2.90;99.90;;;;;;5066455;28;20044;-68
2021/12/02 07:39:39;;;;;;;5.47;1.50;;;2.90;99.90;;;;;;5068176;28;20048;-68
2021/12/02 07:42:04;;;;;;;4.53;1.67;;;2.90;99.90;;;;;;5068790;28;20048;-68
2021/12/02 07:44:32;;;;;;;3.33;1.80;;;2.90;99.90;;;;;;5067738;28;20060;-69
2021/12/02 07:46:58;;;;;;;4.15;1.67;;;3.00;99.90;;;;;;5067792;28;20052;-68
2021/12/02 07:49:24;;;;;;;6.75;1.80;;;3.00;99.90;;;;;;5067566;28;20044;-68
2021/12/02 07:51:50;;;;;;;4.75;1.40;;;3.00;99.90;;;;;;5056669;28;20057;-68
2021/12/02 07:54:17;;;;;;;3.67;1.50;;;3.00;99.90;;;;;;5065059;28;20064;-68
2021/12/02 07:56:46;;;;;;;2.35;1.45;;;3.00;99.90;;;;;;5033603;28;20063;-68
2021/12/02 07:59:15;;;;;;;2.47;1.50;;;3.00;99.90;;;;;;5051627;28;20047;-68
2021/12/02 08:01:42;;;;;;;2.78;2.00;;;2.90;99.90;;;;;;5035311;28;20076;-71
2021/12/02 08:04:11;;;;;;;2.97;1.70;;;3.00;99.90;;;;;;5070626;28;20049;-71
2021/12/02 08:06:37;;;;;;;4.38;1.90;;;3.00;99.90;;;;;;5068715;28;20052;-70
2021/12/02 08:09:05;;;;;;;3.22;2.13;;;3.00;99.90;;;;;;5061961;28;20468;-71
2021/12/02 08:11:32;;;;;;;7.28;2.60;;;3.10;99.90;;;;;;5069927;28;20043;-70
2021/12/02 08:13:57;;;;;;;4.60;2.50;;;3.10;99.90;;;;;;5058478;28;20441;-71
2021/12/02 08:16:23;;;;;;;3.70;2.60;;;3.20;99.90;;;;;;5066591;28;20080;-70
2021/12/02 08:18:49;;;;;;;4.68;2.60;;;3.30;99.90;;;;;;5066629;28;20127;-69
2021/12/02 08:21:15;;;;;;;7.80;2.55;;;3.50;99.90;;;;;;5055030;28;20152;-70
2021/12/02 08:23:40;;;;;;;4.28;2.70;;;3.70;99.90;;;;;;5031146;28;20041;-70
2021/12/02 08:26:06;;;;;;;5.13;2.90;;;4.80;99.90;;;;;;5030523;28;20053;-70
2021/12/02 08:28:32;;;;;;;4.05;2.53;;;4.10;99.90;;;;;;5048479;28;20082;-70
2021/12/02 08:30:58;;;;;;;4.20;2.70;;;4.20;99.90;;;;;;5049682;28;20082;-70
2021/12/02 08:33:24;;;;;;;5.15;2.70;;;4.40;99.90;;;;;;5068476;28;20039;-71
2021/12/02 08:35:49;;;;;;;6.20;2.50;;;4.50;99.90;;;;;;5068946;28;20050;-70
2021/12/02 08:38:17;;;;;;;6.68;2.65;;;4.60;99.90;;;;;;5088122;28;20043;-71
2021/12/02 08:40:46;;;;;;;3.95;2.70;;;4.70;99.90;;;;;;5088180;28;20051;-70
2021/12/02 08:43:13;;;;;;;6.55;3.13;;;4.90;99.90;;;;;;5066796;28;20048;-70
2021/12/02 08:45:41;;;;;;;4.38;3.00;;;5.10;99.90;;;;;;5070068;28;20365;-70
2021/12/02 08:48:08;;;;;;;4.57;2.85;;;5.40;99.90;;;;;;5049533;28;20068;-69
2021/12/02 08:50:35;;;;;;;5.45;3.03;;;5.60;99.90;;;;;;5070637;28;20408;-70
2021/12/02 08:53:02;;;;;;;5.32;3.28;;;5.80;99.90;;;;;;5060699;28;20057;-70
2021/12/02 08:55:31;;;;;;;8.77;3.00;;;5.80;99.90;;;;;;5047654;28;20137;-68
2021/12/02 08:57:58;;;;;;;6.10;2.95;;;5.70;99.90;;;;;;5033147;28;20048;-71
2021/12/02 09:00:33;;;;;;;3.85;2.20;;;5.60;99.90;;;;;;5068811;28;20044;-70
2021/12/02 09:02:59;;;;;;;3.80;2.00;;;5.80;99.90;;;;;;5050069;28;20381;-70
2021/12/02 09:05:26;;;;;;;3.20;1.70;;;5.40;99.90;;;;;;5067096;28;20059;-70
2021/12/02 09:07:52;;;;;;;3.38;1.95;;;5.30;99.90;;;;;;5067770;28;20667;-69
2021/12/02 09:10:21;;;;;;;4.40;1.88;;;5.20;99.90;;;;;;5067209;28;20044;-70
2021/12/02 09:12:48;;;;;;;2.70;1.60;;;6.00;99.90;;;;;;5050687;28;20040;-70
2021/12/02 09:15:14;;;;;;;3.50;1.65;;;5.10;99.90;;;;;;5066583;28;20044;-71
2021/12/02 09:17:40;;;;;;;5.72;1.80;;;5.10;99.90;;;;;;5049092;28;20055;-71
2021/12/02 09:20:08;;;;;;;2.63;1.50;;;5.10;99.90;;;;;;5050360;28;20568;-71
2021/12/02 09:22:34;;;;;;;3.90;1.50;;;5.10;99.90;;;;;;5064768;28;21483;-70
2021/12/02 09:24:59;;;;;;;3.70;2.20;;;5.10;99.90;;;;;;5061127;28;20052;-70
2021/12/02 09:27:25;;;;;;;4.95;1.60;;;5.10;99.90;;;;;;5053752;28;20035;-70
2021/12/02 09:29:51;;;;;;;5.78;2.00;;;5.30;99.90;;;;;;5049815;28;20048;-71
2021/12/02 09:32:17;;;;;;;6.90;3.33;;;6.00;99.90;;;;;;5028412;28;20053;-71
2021/12/02 09:34:43;;;;;;;4.30;3.08;;;7.10;99.90;;;;;;5047687;28;20106;-70
2021/12/02 09:37:08;;;;;;;4.40;2.38;;;7.40;99.90;;;;;;5046804;28;20057;-70
2021/12/02 09:39:35;;;;;;;4.63;1.92;;;9.50;99.90;;;;;;5050569;28;20470;-69
2021/12/02 09:42:02;;;;;;;3.65;1.70;;;10.60;99.90;;;;;;5048737;28;20041;-70
2021/12/02 09:44:28;;;;;;;7.43;2.50;;;12.50;99.90;;;;;;5047380;28;20451;-70
2021/12/02 09:46:54;;;;;;;5.38;2.40;;;12.80;99.90;;;;;;5044693;28;20363;-73
2021/12/02 09:49:21;;;;;;;5.93;1.80;;;13.00;99.90;;;;;;5031903;28;20055;-71
2021/12/02 09:54:38;;;;;;;4.95;1.90;;;11.80;99.90;;;;;;5051439;28;20036;-70
2021/12/02 09:57:06;;;;;;;4.82;1.65;;;10.80;99.90;;;;;;5048899;28;20055;-70
2021/12/02 09:59:47;;;;;;;4.55;1.50;;;9.70;99.90;;;;;;5067256;28;20051;-69
2021/12/02 10:02:17;;;;;;;2.55;1.13;;;9.30;99.90;;;;;;5050236;28;20787;-70
2021/12/02 10:04:51;;;;;;;2.83;1.50;;;8.50;99.90;;;;;;5010058;28;20033;-70
2021/12/02 10:07:25;;;;;;;3.03;1.33;;;7.50;99.90;;;;;;5066000;28;20036;-70
2021/12/02 10:10:09;;;;;;;2.75;1.15;;;7.00;99.90;;;;;;5038161;28;20066;-70
2021/12/02 10:12:48;;;;;;;2.58;1.33;;;6.70;99.90;;;;;;5053265;28;20098;-70
2021/12/02 10:15:16;;;;;;;2.05;1.27;;;6.30;99.90;;;;;;5036475;28;20453;-71
2021/12/02 10:17:47;;;;;;;2.92;1.40;;;7.20;99.90;;;;;;5049064;28;20067;-70
2021/12/02 10:23:25;;;;;;;3.35;1.60;;;5.70;99.90;;;;;;5051436;28;20041;-71
2021/12/02 10:25:58;;;;;;;3.83;1.50;;;5.60;99.90;;;;;;5042735;28;20049;-71
2021/12/02 10:28:25;;;;;;;4.45;1.40;;;5.50;99.90;;;;;;5039985;28;20051;-70
2021/12/02 10:30:59;;;;;;;3.45;1.60;;;5.60;99.90;;;;;;5051232;28;20045;-71
2021/12/02 10:33:31;;;;;;;4.10;1.70;;;5.60;99.90;;;;;;5051029;28;20049;-71
2021/12/02 10:35:59;;;;;;;2.55;1.58;;;5.60;99.90;;;;;;5053130;28;20041;-71
2021/12/02 10:38:43;;;;;;;4.82;1.63;;;5.60;99.90;;;;;;5047498;28;20485;-71
2021/12/02 10:41:16;;;;;;;4.07;1.58;;;5.50;99.90;;;;;;5051006;28;20047;-70
2021/12/02 10:44:06;;;;;;;2.30;1.58;;;5.50;99.90;;;;;;5070229;28;20492;-71
2021/12/02 10:46:33;;;;;;;2.17;1.40;;;5.40;99.90;;;;;;5068369;28;20040;-70
2021/12/02 10:48:58;;;;;;;2.60;1.50;;;5.30;99.90;;;;;;5039211;28;20112;-70
2021/12/02 10:51:46;;;;;;;3.50;1.60;;;5.70;99.90;;;;;;5069358;28;20063;-71
2021/12/02 10:54:20;;;;;;;5.43;1.42;;;5.00;99.90;;;;;;5052571;28;20105;-71
2021/12/02 10:56:50;;;;;;;2.22;1.30;;;5.10;99.90;;;;;;5051797;28;20048;-71
2021/12/02 10:59:28;;;;;;;2.15;1.20;;;4.40;99.90;;;;;;5051940;28;20386;-71
2021/12/02 11:01:59;;;;;;;2.13;1.33;;;4.60;99.90;;;;;;5069222;28;20075;-70
2021/12/02 11:04:25;;;;;;;5.70;1.70;;;4.60;99.90;;;;;;5051592;28;20469;-70
2021/12/02 11:06:55;;;;;;;3.70;2.00;;;4.60;99.90;;;;;;5051132;28;20048;-71
2021/12/02 11:09:29;;;;;;;3.92;1.40;;;4.50;99.90;;;;;;5067792;28;20045;-71
2021/12/02 11:12:15;;;;;;;2.97;1.40;;;4.50;99.90;;;;;;5052201;28;20389;-71
2021/12/02 11:14:53;;;;;;;1.90;1.35;;;4.50;99.90;;;;;;5069415;28;20056;-71
2021/12/02 11:17:19;;;;;;;2.78;1.25;;;4.60;99.90;;;;;;5067149;28;20124;-69
2021/12/02 11:19:48;;;;;;;1.35;1.25;;;4.60;99.90;;;;;;5068713;28;20141;-71
2021/12/02 11:22:17;;;;;;;2.63;1.40;;;4.60;99.90;;;;;;5050531;28;20274;-72
2021/12/02 11:24:45;;;;;;;3.67;1.48;;;4.60;99.90;;;;;;5070049;28;20040;-71
2021/12/02 11:27:19;;;;;;;5.13;2.40;;;4.60;99.90;;;;;;5069344;28;20048;-70
2021/12/02 11:29:47;;;;;;;4.20;1.90;;;4.70;99.90;;;;;;5069284;28;20055;-69
2021/12/02 11:32:37;;;;;;;2.80;1.40;;;4.80;99.90;;;;;;5062691;28;20424;-71
2021/12/02 11:35:03;;;;;;;4.53;1.60;;;4.90;99.90;;;;;;5068880;28;20109;-70
2021/12/02 11:37:29;;;;;;;2.45;1.80;;;4.90;99.90;;;;;;5068382;28;20131;-71
2021/12/02 11:39:57;;;;;;;4.75;1.48;;;4.90;99.90;;;;;;5063896;28;20044;-71
2021/12/02 11:42:23;;;;;;;1.95;1.27;;;4.90;99.90;;;;;;5068516;28;20182;-72
2021/12/02 11:44:48;;;;;;;2.90;1.30;;;4.80;99.90;;;;;;5064403;28;20151;-72
2021/12/02 11:47:15;;;;;;;2.88;1.50;;;4.80;99.90;;;;;;5044031;28;20095;-71
2021/12/02 11:49:41;;;;;;;1.63;1.23;;;4.70;99.90;;;;;;5057171;28;20101;-71
2021/12/02 11:52:08;;;;;;;1.30;1.20;;;4.60;99.90;;;;;;5064052;28;20057;-71
2021/12/02 11:54:34;;;;;;;2.88;1.20;;;4.60;99.90;;;;;;5065139;28;20558;-70
2021/12/02 11:57:00;;;;;;;3.40;1.40;;;4.60;99.90;;;;;;5065293;28;20063;-71
2021/12/02 11:59:26;;;;;;;2.90;1.30;;;4.60;99.90;;;;;;5065700;28;20547;-71
2021/12/02 12:01:55;;;;;;;2.63;1.38;;;4.60;99.90;;;;;;5065542;28;20074;-71
2021/12/02 12:04:21;;;;;;;3.63;1.52;;;4.50;99.90;;;;;;5063743;28;20153;-71
2021/12/02 12:06:53;;;;;;;2.47;1.52;;;4.40;99.90;;;;;;5063848;28;20120;-72
2021/12/02 12:09:25;;;;;;;3.60;1.50;;;5.40;99.90;;;;;;5065414;28;20694;-71
2021/12/02 12:11:54;;;;;;;3.72;1.80;;;6.80;99.90;;;;;;5070293;28;20048;-71
2021/12/02 12:14:38;;;;;;;4.18;1.50;;;6.80;99.90;;;;;;5069759;28;20476;-70
2021/12/02 12:17:12;;;;;;;2.83;1.42;;;6.90;99.90;;;;;;5065001;28;20052;-71
2021/12/02 12:19:43;;;;;;;3.00;1.30;;;7.00;99.90;;;;;;5068308;28;20103;-70
2021/12/02 12:22:13;;;;;;;2.95;1.30;;;6.80;99.90;;;;;;5047073;28;20045;-70
2021/12/02 12:24:49;;;;;;;2.45;1.30;;;6.70;99.90;;;;;;5032509;28;20052;-70
2021/12/02 12:27:23;;;;;;;2.05;1.20;;;6.50;99.90;;;;;;5051066;28;20090;-70
2021/12/02 12:30:13;;;;;;;2.28;1.50;;;6.10;99.90;;;;;;5049937;28;20351;-72
2021/12/02 12:33:06;;;;;;;2.28;1.35;;;6.10;99.90;;;;;;5032216;28;20056;-70
2021/12/02 12:38:29;;;;;;;4.65;4.25;;;7.20;99.90;;;;;;5064174;28;20088;-70
2021/12/02 12:40:57;;;;;;;3.13;2.83;;;10.50;99.90;;;;;;5050999;28;20024;-70
2021/12/02 12:43:28;;;;;;;5.03;4.70;;;12.90;99.90;;;;;;5060947;28;20125;-70
2021/12/02 12:46:12;;;;;;;5.13;4.68;;;13.50;99.90;;;;;;5053379;28;20392;-70
2021/12/02 12:48:38;;;;;;;3.72;3.42;;;12.30;99.90;;;;;;5070660;28;20056;-70
2021/12/02 12:51:14;;;;;;;1.50;1.40;;;11.60;99.90;;;;;;5068442;28;20057;-69
2021/12/02 12:53:43;;;;;;;1.42;1.23;;;11.20;99.90;;;;;;5049994;28;20037;-70
2021/12/02 12:56:11;;;;;;;1.20;1.10;;;10.60;99.90;;;;;;5064937;28;20059;-71
2021/12/02 12:59:00;;;;;;;2.13;1.00;;;10.20;99.90;;;;;;5065076;28;20067;-71
2021/12/02 13:01:27;;;;;;;0.93;0.80;;;9.70;99.90;;;;;;5056980;28;20419;-71
2021/12/02 13:04:13;;;;;;;0.95;0.93;;;8.90;99.90;;;;;;5067847;28;20045;-71
2021/12/02 13:07:10;;;;;;;0.95;0.95;;;8.70;99.90;;;;;;5062946;28;20486;-70
2021/12/02 13:09:56;;;;;;;1.35;1.00;;;8.50;99.90;;;;;;5031988;28;20037;-72
2021/12/02 13:12:46;;;;;;;1.20;1.10;;;8.30;99.90;;;;;;5049771;28;20107;-71
2021/12/02 13:15:19;;;;;;;1.45;1.17;;;8.10;99.90;;;;;;5066685;28;20055;-72
2021/12/02 13:17:46;;;;;;;1.20;1.10;;;8.10;99.90;;;;;;5066963;28;20063;-70
2021/12/02 13:20:36;;;;;;;2.10;1.50;;;8.00;99.90;;;;;;5048911;28;20131;-71
2021/12/02 13:23:17;;;;;;;3.75;2.00;;;7.80;99.90;;;;;;5030739;28;20454;-70
2021/12/02 13:25:47;;;;;;;3.60;1.60;;;7.70;99.90;;;;;;5047941;28;20061;-71